sensor_id;sensor_type;location;lat;lon;timestamp;P1;durP1;ratioP1;P2;durP2;ratioP2
49514;SDS011;35415;47.870;16.058;2022-12-07T05:43:51;13.25;;;6.22;;
49514;SDS011;35415;47.870;16.058;2022-12-07T05:46:54;14.77;;;6.78;;
49514;SDS011;35415;47.870;16.058;2022-12-07T05:53:07;10.23;;;4.32;;
49514;SDS011;35415;47.870;16.058;2022-12-07T05:56:03;9.02;;;4.93;;
49514;SDS011;35415;47.870;16.058;2022-12-07T12:46:52;3.13;;;0.88;;
49514;SDS011;35415;47.870;16.058;2022-12-07T12:49:54;1.38;;;0.95;;
49514;SDS011;35415;47.870;16.058;2022-12-07T12:53:31;1.10;;;0.80;;
49514;SDS011;35415;47.870;16.058;2022-12-07T12:56:29;1.20;;;0.82;;
49514;SDS011;35415;47.870;16.058;2022-12-07T13:02:22;1.25;;;1.00;;
49514;SDS011;35415;47.870;16.058;2022-12-07T13:05:36;1.55;;;0.70;;
49514;SDS011;35415;47.870;16.058;2022-12-07T13:08:53;1.67;;;0.90;;
49514;SDS011;35415;47.870;16.058;2022-12-07T13:11:59;1.40;;;0.80;;
49514;SDS011;35415;47.870;16.058;2022-12-07T13:15:47;0.73;;;0.60;;
49514;SDS011;35415;47.870;16.058;2022-12-07T13:21:56;1.15;;;0.80;;
49514;SDS011;35415;47.870;16.058;2022-12-07T13:25:14;2.20;;;0.80;;
49514;SDS011;35415;47.870;16.058;2022-12-07T13:28:08;2.90;;;0.80;;
49514;SDS011;35415;47.870;16.058;2022-12-07T13:31:19;3.10;;;0.70;;
49514;SDS011;35415;47.870;16.058;2022-12-07T13:34:46;2.22;;;1.85;;
49514;SDS011;35415;47.870;16.058;2022-12-07T13:37:59;1.58;;;0.88;;
49514;SDS011;35415;47.870;16.058;2022-12-07T13:41:10;0.73;;;0.70;;
49514;SDS011;35415;47.870;16.058;2022-12-07T13:43:48;1.23;;;0.77;;
49514;SDS011;35415;47.870;16.058;2022-12-07T13:46:40;0.90;;;0.80;;
49514;SDS011;35415;47.870;16.058;2022-12-07T13:49:51;0.90;;;0.80;;
49514;SDS011;35415;47.870;16.058;2022-12-07T13:53:00;1.35;;;0.77;;
49514;SDS011;35415;47.870;16.058;2022-12-07T13:56:12;1.67;;;0.80;;
49514;SDS011;35415;47.870;16.058;2022-12-07T13:59:40;1.33;;;0.70;;
49514;SDS011;35415;47.870;16.058;2022-12-07T14:02:21;2.70;;;0.95;;
49514;SDS011;35415;47.870;16.058;2022-12-07T14:05:10;1.13;;;0.95;;
49514;SDS011;35415;47.870;16.058;2022-12-07T14:08:20;1.95;;;0.90;;
49514;SDS011;35415;47.870;16.058;2022-12-07T14:11:01;0.75;;;0.75;;
49514;SDS011;35415;47.870;16.058;2022-12-07T14:13:49;1.23;;;0.93;;
49514;SDS011;35415;47.870;16.058;2022-12-07T14:16:42;2.03;;;1.10;;
49514;SDS011;35415;47.870;16.058;2022-12-07T14:19:43;1.67;;;0.98;;
49514;SDS011;35415;47.870;16.058;2022-12-07T14:22:41;1.05;;;0.95;;
49514;SDS011;35415;47.870;16.058;2022-12-07T14:25:32;1.02;;;0.90;;
49514;SDS011;35415;47.870;16.058;2022-12-07T14:28:25;2.25;;;1.10;;
49514;SDS011;35415;47.870;16.058;2022-12-07T14:31:30;0.95;;;0.85;;
49514;SDS011;35415;47.870;16.058;2022-12-07T14:34:30;0.90;;;0.80;;
49514;SDS011;35415;47.870;16.058;2022-12-07T14:37:31;1.50;;;1.08;;
49514;SDS011;35415;47.870;16.058;2022-12-07T14:53:09;1.20;;;0.95;;
49514;SDS011;35415;47.870;16.058;2022-12-07T14:55:50;3.30;;;1.13;;
49514;SDS011;35415;47.870;16.058;2022-12-07T14:58:41;1.45;;;1.10;;
49514;SDS011;35415;47.870;16.058;2022-12-07T15:01:49;2.75;;;1.40;;
49514;SDS011;35415;47.870;16.058;2022-12-07T15:04:38;2.10;;;1.38;;
49514;SDS011;35415;47.870;16.058;2022-12-07T15:10:36;7.63;;;4.00;;
49514;SDS011;35415;47.870;16.058;2022-12-07T15:13:35;10.57;;;4.57;;
49514;SDS011;35415;47.870;16.058;2022-12-07T15:17:30;4.13;;;2.45;;
49514;SDS011;35415;47.870;16.058;2022-12-07T15:19:56;4.32;;;2.58;;
49514;SDS011;35415;47.870;16.058;2022-12-07T15:22:45;6.15;;;2.75;;
49514;SDS011;35415;47.870;16.058;2022-12-07T15:33:20;5.05;;;2.55;;
49514;SDS011;35415;47.870;16.058;2022-12-07T15:36:37;4.38;;;2.60;;
49514;SDS011;35415;47.870;16.058;2022-12-07T15:42:43;13.50;;;6.30;;
49514;SDS011;35415;47.870;16.058;2022-12-07T15:55:33;5.35;;;3.20;;
49514;SDS011;35415;47.870;16.058;2022-12-07T15:58:05;8.23;;;4.43;;
49514;SDS011;35415;47.870;16.058;2022-12-07T16:00:55;11.25;;;5.32;;
49514;SDS011;35415;47.870;16.058;2022-12-07T16:03:55;9.88;;;4.70;;
49514;SDS011;35415;47.870;16.058;2022-12-07T16:06:48;9.68;;;4.10;;
49514;SDS011;35415;47.870;16.058;2022-12-07T16:09:20;9.18;;;4.28;;
49514;SDS011;35415;47.870;16.058;2022-12-07T16:12:20;9.40;;;4.63;;
49514;SDS011;35415;47.870;16.058;2022-12-07T16:15:15;7.90;;;4.53;;
49514;SDS011;35415;47.870;16.058;2022-12-07T16:18:18;7.05;;;4.07;;
49514;SDS011;35415;47.870;16.058;2022-12-07T16:21:38;10.85;;;5.45;;
49514;SDS011;35415;47.870;16.058;2022-12-07T16:24:20;10.35;;;4.55;;
49514;SDS011;35415;47.870;16.058;2022-12-07T16:26:58;9.40;;;4.40;;
49514;SDS011;35415;47.870;16.058;2022-12-07T16:32:49;8.07;;;4.55;;
49514;SDS011;35415;47.870;16.058;2022-12-07T16:35:42;5.45;;;3.28;;
49514;SDS011;35415;47.870;16.058;2022-12-07T16:38:29;7.80;;;2.47;;
49514;SDS011;35415;47.870;16.058;2022-12-07T16:41:28;3.25;;;2.40;;
49514;SDS011;35415;47.870;16.058;2022-12-07T16:51:36;3.55;;;2.28;;
49514;SDS011;35415;47.870;16.058;2022-12-07T16:57:44;4.07;;;2.45;;
49514;SDS011;35415;47.870;16.058;2022-12-07T17:01:23;5.95;;;3.78;;
49514;SDS011;35415;47.870;16.058;2022-12-07T17:04:20;5.75;;;2.95;;
49514;SDS011;35415;47.870;16.058;2022-12-07T17:07:12;6.65;;;3.90;;
49514;SDS011;35415;47.870;16.058;2022-12-07T17:12:04;5.93;;;3.10;;
49514;SDS011;35415;47.870;16.058;2022-12-07T17:13:04;6.07;;;3.15;;
49514;SDS011;35415;47.870;16.058;2022-12-07T17:16:00;5.13;;;3.17;;
49514;SDS011;35415;47.870;16.058;2022-12-07T17:19:13;8.80;;;4.07;;
49514;SDS011;35415;47.870;16.058;2022-12-07T17:28:10;6.10;;;3.05;;
49514;SDS011;35415;47.870;16.058;2022-12-07T17:30:51;5.03;;;2.53;;
49514;SDS011;35415;47.870;16.058;2022-12-07T17:33:33;5.13;;;2.93;;
49514;SDS011;35415;47.870;16.058;2022-12-07T17:36:10;11.63;;;3.38;;
49514;SDS011;35415;47.870;16.058;2022-12-07T17:38:51;3.67;;;2.47;;
49514;SDS011;35415;47.870;16.058;2022-12-07T18:08:43;11.75;;;6.43;;
49514;SDS011;35415;47.870;16.058;2022-12-07T18:11:11;13.18;;;5.43;;
49514;SDS011;35415;47.870;16.058;2022-12-07T18:13:41;12.63;;;6.38;;
49514;SDS011;35415;47.870;16.058;2022-12-07T18:16:14;7.80;;;4.55;;
49514;SDS011;35415;47.870;16.058;2022-12-07T18:18:47;8.43;;;4.93;;
49514;SDS011;35415;47.870;16.058;2022-12-07T18:21:41;10.05;;;4.65;;
49514;SDS011;35415;47.870;16.058;2022-12-07T18:24:26;8.10;;;4.90;;
49514;SDS011;35415;47.870;16.058;2022-12-07T18:27:26;10.23;;;5.68;;
49514;SDS011;35415;47.870;16.058;2022-12-07T18:30:27;9.60;;;5.10;;
49514;SDS011;35415;47.870;16.058;2022-12-07T18:33:06;11.65;;;5.68;;
49514;SDS011;35415;47.870;16.058;2022-12-07T18:35:36;7.35;;;4.82;;
49514;SDS011;35415;47.870;16.058;2022-12-07T18:38:16;10.15;;;5.05;;
49514;SDS011;35415;47.870;16.058;2022-12-07T18:41:05;11.48;;;5.45;;
49514;SDS011;35415;47.870;16.058;2022-12-07T18:43:33;11.95;;;5.40;;
49514;SDS011;35415;47.870;16.058;2022-12-07T18:46:23;9.98;;;5.13;;
49514;SDS011;35415;47.870;16.058;2022-12-07T18:49:12;10.52;;;4.78;;
49514;SDS011;35415;47.870;16.058;2022-12-07T18:52:00;14.63;;;5.28;;
49514;SDS011;35415;47.870;16.058;2022-12-07T18:54:32;9.75;;;4.93;;
49514;SDS011;35415;47.870;16.058;2022-12-07T18:57:15;11.90;;;5.25;;
49514;SDS011;35415;47.870;16.058;2022-12-07T19:00:07;8.80;;;4.47;;
49514;SDS011;35415;47.870;16.058;2022-12-07T19:02:58;9.02;;;4.35;;
49514;SDS011;35415;47.870;16.058;2022-12-07T19:05:49;9.50;;;4.97;;
49514;SDS011;35415;47.870;16.058;2022-12-07T19:08:16;7.53;;;4.28;;
49514;SDS011;35415;47.870;16.058;2022-12-07T19:10:44;8.60;;;4.38;;
49514;SDS011;35415;47.870;16.058;2022-12-07T19:13:20;8.90;;;4.45;;
49514;SDS011;35415;47.870;16.058;2022-12-07T19:15:50;7.70;;;4.13;;
49514;SDS011;35415;47.870;16.058;2022-12-07T19:18:21;6.90;;;4.03;;
49514;SDS011;35415;47.870;16.058;2022-12-07T19:20:50;7.47;;;3.55;;
49514;SDS011;35415;47.870;16.058;2022-12-07T19:23:20;8.77;;;4.28;;
49514;SDS011;35415;47.870;16.058;2022-12-07T19:25:53;10.45;;;3.72;;
49514;SDS011;35415;47.870;16.058;2022-12-07T19:28:34;9.60;;;3.72;;
49514;SDS011;35415;47.870;16.058;2022-12-07T19:31:06;4.70;;;3.53;;
49514;SDS011;35415;47.870;16.058;2022-12-07T19:33:35;7.83;;;4.50;;
49514;SDS011;35415;47.870;16.058;2022-12-07T19:36:05;8.63;;;3.88;;
49514;SDS011;35415;47.870;16.058;2022-12-07T19:38:43;11.55;;;4.75;;
49514;SDS011;35415;47.870;16.058;2022-12-07T19:41:21;9.45;;;4.57;;
49514;SDS011;35415;47.870;16.058;2022-12-07T19:44:04;10.30;;;4.72;;
49514;SDS011;35415;47.870;16.058;2022-12-07T19:46:35;8.30;;;4.50;;
49514;SDS011;35415;47.870;16.058;2022-12-07T19:49:04;13.82;;;5.20;;
49514;SDS011;35415;47.870;16.058;2022-12-07T19:51:34;10.30;;;4.72;;
49514;SDS011;35415;47.870;16.058;2022-12-07T19:54:08;6.10;;;4.13;;
49514;SDS011;35415;47.870;16.058;2022-12-07T19:56:45;13.05;;;4.38;;
49514;SDS011;35415;47.870;16.058;2022-12-07T20:02:32;10.15;;;4.80;;
49514;SDS011;35415;47.870;16.058;2022-12-07T20:05:08;6.90;;;3.90;;
49514;SDS011;35415;47.870;16.058;2022-12-07T20:07:51;5.75;;;3.47;;
49514;SDS011;35415;47.870;16.058;2022-12-07T20:10:38;8.30;;;4.80;;
49514;SDS011;35415;47.870;16.058;2022-12-07T20:13:24;8.93;;;4.40;;
49514;SDS011;35415;47.870;16.058;2022-12-07T20:19:06;9.45;;;4.70;;
49514;SDS011;35415;47.870;16.058;2022-12-07T20:21:36;8.57;;;4.18;;
49514;SDS011;35415;47.870;16.058;2022-12-07T20:24:05;13.52;;;5.68;;
49514;SDS011;35415;47.870;16.058;2022-12-07T20:26:36;7.97;;;4.90;;
49514;SDS011;35415;47.870;16.058;2022-12-07T20:29:06;8.15;;;5.07;;
49514;SDS011;35415;47.870;16.058;2022-12-07T20:31:38;9.70;;;5.32;;
49514;SDS011;35415;47.870;16.058;2022-12-07T20:34:07;10.63;;;5.38;;
49514;SDS011;35415;47.870;16.058;2022-12-07T20:36:34;10.18;;;5.30;;
49514;SDS011;35415;47.870;16.058;2022-12-07T20:39:03;13.23;;;5.82;;
49514;SDS011;35415;47.870;16.058;2022-12-07T20:41:32;9.98;;;4.32;;
49514;SDS011;35415;47.870;16.058;2022-12-07T20:44:17;11.15;;;7.55;;
49514;SDS011;35415;47.870;16.058;2022-12-07T20:46:50;9.05;;;4.70;;
49514;SDS011;35415;47.870;16.058;2022-12-07T20:49:19;11.20;;;5.85;;
49514;SDS011;35415;47.870;16.058;2022-12-07T20:51:50;10.90;;;5.70;;
49514;SDS011;35415;47.870;16.058;2022-12-07T20:54:41;8.63;;;4.47;;
49514;SDS011;35415;47.870;16.058;2022-12-07T20:57:14;6.65;;;4.25;;
49514;SDS011;35415;47.870;16.058;2022-12-07T21:00:10;6.75;;;4.35;;
49514;SDS011;35415;47.870;16.058;2022-12-07T21:02:46;8.48;;;4.50;;
49514;SDS011;35415;47.870;16.058;2022-12-07T21:05:13;7.47;;;4.03;;
49514;SDS011;35415;47.870;16.058;2022-12-07T21:07:52;6.80;;;4.32;;
49514;SDS011;35415;47.870;16.058;2022-12-07T21:10:19;9.48;;;4.88;;
49514;SDS011;35415;47.870;16.058;2022-12-07T21:12:53;9.77;;;5.35;;
49514;SDS011;35415;47.870;16.058;2022-12-07T21:15:22;8.68;;;4.28;;
49514;SDS011;35415;47.870;16.058;2022-12-07T21:17:53;12.23;;;5.68;;
49514;SDS011;35415;47.870;16.058;2022-12-07T21:20:22;9.90;;;5.00;;
49514;SDS011;35415;47.870;16.058;2022-12-07T21:22:49;11.25;;;6.25;;
49514;SDS011;35415;47.870;16.058;2022-12-07T21:25:18;11.48;;;5.63;;
49514;SDS011;35415;47.870;16.058;2022-12-07T21:27:46;5.93;;;3.75;;
49514;SDS011;35415;47.870;16.058;2022-12-07T21:30:13;6.20;;;3.85;;
49514;SDS011;35415;47.870;16.058;2022-12-07T21:32:42;7.28;;;4.10;;
49514;SDS011;35415;47.870;16.058;2022-12-07T21:35:13;7.22;;;3.58;;
49514;SDS011;35415;47.870;16.058;2022-12-07T21:37:40;7.20;;;3.78;;
49514;SDS011;35415;47.870;16.058;2022-12-07T21:40:09;6.00;;;3.83;;
49514;SDS011;35415;47.870;16.058;2022-12-07T21:42:43;6.85;;;4.30;;
49514;SDS011;35415;47.870;16.058;2022-12-07T21:45:30;4.90;;;2.60;;
49514;SDS011;35415;47.870;16.058;2022-12-07T21:48:24;6.15;;;3.97;;
49514;SDS011;35415;47.870;16.058;2022-12-07T21:51:16;9.43;;;4.53;;
49514;SDS011;35415;47.870;16.058;2022-12-07T21:54:04;8.57;;;4.28;;
49514;SDS011;35415;47.870;16.058;2022-12-07T21:56:33;7.82;;;4.78;;
49514;SDS011;35415;47.870;16.058;2022-12-07T21:59:04;5.97;;;4.47;;
49514;SDS011;35415;47.870;16.058;2022-12-07T22:01:58;8.73;;;4.88;;
49514;SDS011;35415;47.870;16.058;2022-12-07T22:04:48;8.63;;;4.57;;
49514;SDS011;35415;47.870;16.058;2022-12-07T22:07:39;9.63;;;4.13;;
49514;SDS011;35415;47.870;16.058;2022-12-07T22:10:16;9.20;;;4.68;;
49514;SDS011;35415;47.870;16.058;2022-12-07T22:12:59;9.20;;;4.55;;
49514;SDS011;35415;47.870;16.058;2022-12-07T22:16:13;6.43;;;3.88;;
49514;SDS011;35415;47.870;16.058;2022-12-07T22:18:55;7.60;;;4.28;;
49514;SDS011;35415;47.870;16.058;2022-12-07T22:21:38;6.90;;;4.07;;
49514;SDS011;35415;47.870;16.058;2022-12-07T22:24:21;9.80;;;4.30;;
49514;SDS011;35415;47.870;16.058;2022-12-07T22:27:29;4.40;;;3.38;;
49514;SDS011;35415;47.870;16.058;2022-12-07T22:30:21;6.40;;;3.65;;
49514;SDS011;35415;47.870;16.058;2022-12-07T22:33:15;6.20;;;4.30;;
49514;SDS011;35415;47.870;16.058;2022-12-07T22:35:52;6.75;;;3.70;;
49514;SDS011;35415;47.870;16.058;2022-12-07T22:38:24;8.40;;;3.25;;
49514;SDS011;35415;47.870;16.058;2022-12-07T22:40:57;6.78;;;4.45;;
49514;SDS011;35415;47.870;16.058;2022-12-07T22:43:45;6.90;;;3.42;;
49514;SDS011;35415;47.870;16.058;2022-12-07T22:46:16;7.28;;;3.88;;
49514;SDS011;35415;47.870;16.058;2022-12-07T22:48:43;6.85;;;4.00;;
49514;SDS011;35415;47.870;16.058;2022-12-07T22:51:20;7.43;;;3.85;;
49514;SDS011;35415;47.870;16.058;2022-12-07T22:53:49;5.85;;;3.13;;
49514;SDS011;35415;47.870;16.058;2022-12-07T22:56:20;4.50;;;2.75;;
49514;SDS011;35415;47.870;16.058;2022-12-07T22:58:48;9.57;;;3.53;;
49514;SDS011;35415;47.870;16.058;2022-12-07T23:01:24;5.03;;;3.03;;
49514;SDS011;35415;47.870;16.058;2022-12-07T23:04:22;7.22;;;4.20;;
49514;SDS011;35415;47.870;16.058;2022-12-07T23:07:12;6.10;;;3.60;;
49514;SDS011;35415;47.870;16.058;2022-12-07T23:10:08;5.03;;;3.22;;
49514;SDS011;35415;47.870;16.058;2022-12-07T23:12:38;5.15;;;3.25;;
49514;SDS011;35415;47.870;16.058;2022-12-07T23:15:23;5.70;;;3.13;;
49514;SDS011;35415;47.870;16.058;2022-12-07T23:17:50;6.28;;;3.63;;
49514;SDS011;35415;47.870;16.058;2022-12-07T23:20:17;4.63;;;3.47;;
49514;SDS011;35415;47.870;16.058;2022-12-07T23:22:44;6.43;;;2.80;;
49514;SDS011;35415;47.870;16.058;2022-12-07T23:25:13;4.50;;;3.38;;
49514;SDS011;35415;47.870;16.058;2022-12-07T23:27:42;5.28;;;3.58;;
49514;SDS011;35415;47.870;16.058;2022-12-07T23:30:10;8.02;;;2.97;;
49514;SDS011;35415;47.870;16.058;2022-12-07T23:32:37;7.95;;;3.95;;
49514;SDS011;35415;47.870;16.058;2022-12-07T23:35:05;9.02;;;3.80;;
49514;SDS011;35415;47.870;16.058;2022-12-07T23:37:33;9.95;;;3.63;;
49514;SDS011;35415;47.870;16.058;2022-12-07T23:40:01;6.43;;;3.28;;
49514;SDS011;35415;47.870;16.058;2022-12-07T23:42:28;5.32;;;3.70;;
49514;SDS011;35415;47.870;16.058;2022-12-07T23:45:01;6.60;;;3.90;;
49514;SDS011;35415;47.870;16.058;2022-12-07T23:47:30;7.60;;;3.45;;
49514;SDS011;35415;47.870;16.058;2022-12-07T23:49:57;6.60;;;3.92;;
49514;SDS011;35415;47.870;16.058;2022-12-07T23:52:29;6.53;;;4.35;;
49514;SDS011;35415;47.870;16.058;2022-12-07T23:54:57;6.20;;;3.88;;
49514;SDS011;35415;47.870;16.058;2022-12-07T23:57:26;7.10;;;4.30;;
49514;SDS011;35415;47.870;16.058;2022-12-07T23:59:58;5.70;;;3.60;;
